createdAt,value
2022-12-31T00:00:42.976Z,76.89
2022-12-31T00:03:46.081Z,75.25
2022-12-31T00:06:49.747Z,73.97
2022-12-31T00:09:54.605Z,74.15
2022-12-31T00:12:59.444Z,74.47
2022-12-31T00:16:12.525Z,74.97
2022-12-31T00:19:15.596Z,75.01
2022-12-31T00:22:17.679Z,74.82
2022-12-31T00:25:20.243Z,74.98
2022-12-31T00:28:22.626Z,74.52
2022-12-31T00:31:34.931Z,75.78
2022-12-31T00:34:37.421Z,76.09
2022-12-31T00:37:39.640Z,76.32
2022-12-31T00:40:41.728Z,76.04
2022-12-31T00:43:44.872Z,76.36
2022-12-31T00:46:46.857Z,77.31
2022-12-31T00:49:48.913Z,77.53
2022-12-31T00:52:53.315Z,77.78
2022-12-31T00:56:03.377Z,77.29
2022-12-31T00:59:06.125Z,77.52
2022-12-31T01:02:08.700Z,77.88
2022-12-31T01:05:11.354Z,78.25
2022-12-31T01:08:13.441Z,78.52
2022-12-31T01:11:29.673Z,78.62
2022-12-31T01:14:34.065Z,78.13
2022-12-31T01:17:36.394Z,78.25
2022-12-31T01:20:42.258Z,78.49
2022-12-31T01:23:44.848Z,78.46
2022-12-31T01:26:49.440Z,77.85
2022-12-31T01:29:51.646Z,78.08
2022-12-31T01:32:53.853Z,77.87
2022-12-31T01:35:55.869Z,77.94
2022-12-31T01:39:01.265Z,78.18
2022-12-31T01:42:03.675Z,78.56
2022-12-31T01:45:11.369Z,78.63
2022-12-31T01:48:17.980Z,77.08
2022-12-31T01:51:21.490Z,78.10
2022-12-31T01:54:27.444Z,76.92
2022-12-31T01:57:30.833Z,77.12
2022-12-31T02:00:33.585Z,77.37
2022-12-31T02:03:36.623Z,76.97
2022-12-31T02:06:43.263Z,76.91
2022-12-31T02:09:45.433Z,76.35
2022-12-31T02:12:48.751Z,76.39
2022-12-31T02:16:05.822Z,75.71
2022-12-31T02:19:27.860Z,76.69
2022-12-31T02:23:06.811Z,77.12
2022-12-31T02:26:37.837Z,76.41
2022-12-31T02:29:49.609Z,75.53
2022-12-31T02:33:02.631Z,76.44
2022-12-31T02:36:15.827Z,75.61
2022-12-31T02:39:18.661Z,75.02
2022-12-31T02:42:20.716Z,74.33
2022-12-31T02:45:29.804Z,75.60
2022-12-31T02:48:46.695Z,74.67
2022-12-31T02:52:02.210Z,75.03
2022-12-31T02:55:14.722Z,75.49
2022-12-31T02:59:05.017Z,74.40
2022-12-31T03:02:16.683Z,74.45
2022-12-31T03:05:26.140Z,73.98
2022-12-31T03:08:28.591Z,74.66
2022-12-31T03:11:49.260Z,75.01
2022-12-31T03:14:53.137Z,75.14
2022-12-31T03:18:02.994Z,74.78
2022-12-31T03:21:31.595Z,75.77
2022-12-31T03:24:52.546Z,75.01
2022-12-31T03:27:56.026Z,74.75
2022-12-31T03:31:02.188Z,74.19
2022-12-31T03:34:07.968Z,74.43
2022-12-31T03:37:11.333Z,74.18
2022-12-31T03:40:14.714Z,74.24
2022-12-31T03:43:19.411Z,74.10
2022-12-31T03:46:21.875Z,73.77
2022-12-31T03:49:24.431Z,74.01
2022-12-31T03:52:27.120Z,74.00
2022-12-31T03:55:30.494Z,74.55
2022-12-31T03:58:33.979Z,74.45
2022-12-31T04:01:36.246Z,74.09
2022-12-31T04:04:39.621Z,74.81
2022-12-31T04:07:42.496Z,74.18
2022-12-31T04:10:45.922Z,74.32
2022-12-31T04:13:49.025Z,74.66
2022-12-31T04:16:52.037Z,74.23
2022-12-31T04:19:55.410Z,73.68
2022-12-31T04:22:57.555Z,73.86
2022-12-31T04:26:00.358Z,74.41
2022-12-31T04:29:04.123Z,73.44
2022-12-31T04:32:07.670Z,73.09
2022-12-31T04:35:11.722Z,73.08
2022-12-31T04:38:13.828Z,73.30
2022-12-31T04:41:18.836Z,73.63
2022-12-31T04:44:21.554Z,74.41
2022-12-31T04:47:24.693Z,73.59
2022-12-31T04:50:26.890Z,74.29
2022-12-31T04:53:29.614Z,74.25
2022-12-31T04:56:33.199Z,74.13
2022-12-31T04:59:35.310Z,74.06
2022-12-31T05:02:37.814Z,73.73
2022-12-31T05:05:42.822Z,73.22
2022-12-31T05:08:44.957Z,72.47
2022-12-31T05:11:47.618Z,72.67
2022-12-31T05:14:52.048Z,73.06
2022-12-31T05:17:54.441Z,73.00
2022-12-31T05:20:56.760Z,72.63
2022-12-31T05:23:59.028Z,73.17
2022-12-31T05:27:01.285Z,72.15
2022-12-31T05:30:05.020Z,75.85
2022-12-31T05:33:07.177Z,76.86
2022-12-31T05:36:09.585Z,75.22
2022-12-31T05:39:12.512Z,75.72
2022-12-31T05:42:16.040Z,81.75
2022-12-31T05:45:18.715Z,85.67
2022-12-31T05:48:20.989Z,81.95
2022-12-31T05:51:23.171Z,83.45
2022-12-31T05:54:25.238Z,84.05
2022-12-31T05:57:27.359Z,82.72
2022-12-31T06:00:29.450Z,79.54
2022-12-31T06:03:31.738Z,76.13
2022-12-31T06:06:33.797Z,73.24
2022-12-31T06:09:35.932Z,72.02
2022-12-31T06:12:39.851Z,73.05
2022-12-31T06:15:41.905Z,74.52
2022-12-31T06:18:44.056Z,73.83
2022-12-31T06:21:46.155Z,73.63
2022-12-31T06:24:48.319Z,73.06
2022-12-31T06:27:50.342Z,74.71
2022-12-31T06:31:00.181Z,74.55
2022-12-31T06:34:02.684Z,74.64
2022-12-31T06:37:04.902Z,74.49
2022-12-31T06:40:07.956Z,74.35
2022-12-31T06:43:11.079Z,74.84
2022-12-31T06:46:16.576Z,75.12
2022-12-31T06:49:18.698Z,78.00
2022-12-31T06:52:21.432Z,80.11
2022-12-31T06:55:26.371Z,80.44
2022-12-31T06:58:28.845Z,80.26
2022-12-31T07:01:39.840Z,79.41
2022-12-31T07:05:00.630Z,80.53
2022-12-31T07:08:24.199Z,82.53
2022-12-31T07:11:52.286Z,82.25
2022-12-31T07:15:16.142Z,83.42
2022-12-31T07:18:33.064Z,84.89
2022-12-31T07:21:40.176Z,84.02
2022-12-31T07:24:43.436Z,82.88
2022-12-31T07:27:57.394Z,82.57
2022-12-31T07:31:43.051Z,80.17
2022-12-31T07:34:57.285Z,78.98
2022-12-31T07:38:18.491Z,78.61
2022-12-31T07:41:27.402Z,77.38
2022-12-31T07:44:53.415Z,76.43
2022-12-31T07:48:02.116Z,76.99
2022-12-31T07:51:05.147Z,76.04
2022-12-31T07:54:13.393Z,77.55
2022-12-31T07:57:18.858Z,79.90
2022-12-31T08:00:29.545Z,79.28
2022-12-31T08:04:03.790Z,77.98
2022-12-31T08:07:18.969Z,76.44
2022-12-31T08:10:32.398Z,77.25
2022-12-31T08:13:34.575Z,76.53
2022-12-31T08:16:36.930Z,76.16
2022-12-31T08:19:39.381Z,76.07
2022-12-31T08:22:51.230Z,76.35
2022-12-31T08:26:30.152Z,76.90
2022-12-31T08:29:32.260Z,75.04
2022-12-31T08:32:57.212Z,75.32
2022-12-31T08:36:10.474Z,75.81
2022-12-31T08:39:36.419Z,73.89
2022-12-31T08:43:11.652Z,73.98
2022-12-31T08:46:27.895Z,73.56
2022-12-31T08:49:34.638Z,72.47
2022-12-31T08:52:36.934Z,72.08
2022-12-31T08:55:42.128Z,69.82
2022-12-31T08:59:12.986Z,85.65
2022-12-31T09:02:24.022Z,76.90
2022-12-31T09:05:31.957Z,76.65
2022-12-31T09:08:55.228Z,75.19
2022-12-31T09:12:20.662Z,74.50
2022-12-31T09:15:58.475Z,77.86
2022-12-31T09:19:01.373Z,75.63
2022-12-31T09:22:04.696Z,70.90
2022-12-31T09:25:14.391Z,66.59
2022-12-31T09:28:44.526Z,64.57
2022-12-31T09:32:02.091Z,65.12
2022-12-31T09:35:37.116Z,57.22
2022-12-31T09:39:00.297Z,55.84
2022-12-31T09:42:21.665Z,59.40
2022-12-31T09:46:05.180Z,55.60
2022-12-31T09:49:23.145Z,56.73
2022-12-31T09:53:02.634Z,58.80
2022-12-31T09:56:10.860Z,59.59
2022-12-31T09:59:21.717Z,59.57
2022-12-31T10:02:37.097Z,58.03
2022-12-31T10:06:22.218Z,59.02
2022-12-31T10:09:29.216Z,60.56
2022-12-31T10:12:49.352Z,60.55
2022-12-31T10:16:03.183Z,61.43
2022-12-31T10:19:17.224Z,62.25
2022-12-31T10:22:37.644Z,60.92
2022-12-31T10:26:03.771Z,60.44
2022-12-31T10:29:23.807Z,60.84
2022-12-31T10:32:52.517Z,61.45
2022-12-31T10:36:04.766Z,61.28
2022-12-31T10:39:33.609Z,62.04
2022-12-31T10:42:38.414Z,61.45
2022-12-31T10:46:40.142Z,62.49
2022-12-31T10:49:45.074Z,62.03
2022-12-31T10:53:05.312Z,62.35
2022-12-31T10:56:35.163Z,62.56
2022-12-31T11:00:06.031Z,63.64
2022-12-31T11:03:50.605Z,63.25
2022-12-31T11:07:14.306Z,63.72
2022-12-31T11:10:34.893Z,63.80
2022-12-31T11:14:21.219Z,63.47
2022-12-31T11:17:49.145Z,64.10
2022-12-31T11:21:13.929Z,64.55
2022-12-31T11:24:37.207Z,65.00
2022-12-31T11:28:18.462Z,64.82
2022-12-31T11:31:47.683Z,64.67
2022-12-31T11:35:04.675Z,64.90
2022-12-31T11:38:20.655Z,65.21
2022-12-31T11:41:39.872Z,64.97
2022-12-31T11:44:49.258Z,64.61
2022-12-31T11:48:32.946Z,64.84
2022-12-31T11:51:52.471Z,65.19
2022-12-31T11:55:12.250Z,65.37
2022-12-31T11:58:17.202Z,65.41
2022-12-31T12:01:30.951Z,65.07
2022-12-31T12:04:33.244Z,65.27
2022-12-31T12:07:35.570Z,65.32
2022-12-31T12:11:07.607Z,65.02
2022-12-31T12:14:30.100Z,65.41
2022-12-31T12:17:34.554Z,65.66
2022-12-31T12:20:38.976Z,65.31
2022-12-31T12:23:42.687Z,65.38
2022-12-31T12:26:48.987Z,65.23
2022-12-31T12:29:51.103Z,65.70
2022-12-31T12:33:01.597Z,65.32
2022-12-31T12:36:11.977Z,65.72
2022-12-31T12:39:28.976Z,66.63
2022-12-31T12:42:31.836Z,66.04
2022-12-31T12:45:51.832Z,66.29
2022-12-31T12:48:58.412Z,66.65
2022-12-31T12:52:21.716Z,66.54
2022-12-31T12:55:26.474Z,66.38
2022-12-31T12:58:43.086Z,66.68
2022-12-31T13:02:10.750Z,67.09
2022-12-31T13:05:39.872Z,67.70
2022-12-31T13:08:57.135Z,65.39
2022-12-31T13:12:56.917Z,62.50
2022-12-31T13:16:32.169Z,62.12
2022-12-31T13:19:47.706Z,62.03
2022-12-31T13:23:36.200Z,59.81
2022-12-31T13:27:02.264Z,61.91
2022-12-31T13:30:15.542Z,61.99
2022-12-31T13:33:23.269Z,58.80
2022-12-31T13:36:28.776Z,60.47
2022-12-31T13:39:36.608Z,60.12
2022-12-31T13:42:53.391Z,58.70
2022-12-31T13:46:21.239Z,58.56
2022-12-31T13:49:46.506Z,59.97
2022-12-31T13:52:57.238Z,58.39
2022-12-31T13:56:04.258Z,55.54
2022-12-31T13:59:12.902Z,56.45
2022-12-31T14:02:18.305Z,58.54
2022-12-31T14:05:30.249Z,56.76
2022-12-31T14:08:32.327Z,55.50
2022-12-31T14:11:55.283Z,57.18
2022-12-31T14:15:13.329Z,56.91
2022-12-31T14:18:37.923Z,55.98
2022-12-31T14:21:49.770Z,57.52
2022-12-31T14:24:52.522Z,58.70
2022-12-31T14:27:56.722Z,56.55
2022-12-31T14:31:37.066Z,56.35
2022-12-31T14:39:20.975Z,55.98
2022-12-31T14:42:36.881Z,55.69
2022-12-31T14:45:38.885Z,57.38
2022-12-31T14:48:46.903Z,55.45
2022-12-31T14:51:51.856Z,54.46
2022-12-31T14:55:08.085Z,57.06
2022-12-31T14:58:34.704Z,56.78
2022-12-31T15:01:49.379Z,53.93
2022-12-31T15:05:26.587Z,54.33
2022-12-31T15:08:43.152Z,56.55
2022-12-31T15:12:09.741Z,54.24
2022-12-31T15:15:33.574Z,56.37
2022-12-31T15:18:53.610Z,57.13
2022-12-31T15:22:24.435Z,55.55
2022-12-31T15:25:40.874Z,56.40
2022-12-31T15:28:43.734Z,56.77
2022-12-31T15:31:48.167Z,59.26
2022-12-31T15:35:02.115Z,57.80
2022-12-31T15:38:38.210Z,56.99
2022-12-31T15:42:10.215Z,58.24
2022-12-31T15:45:13.934Z,58.60
2022-12-31T15:48:26.376Z,59.80
2022-12-31T15:51:33.194Z,60.33
2022-12-31T15:54:39.713Z,59.89
2022-12-31T15:57:43.742Z,61.09
2022-12-31T16:01:02.319Z,61.44
2022-12-31T16:04:33.624Z,63.37
2022-12-31T16:07:35.900Z,62.54
2022-12-31T16:10:38.197Z,62.89
2022-12-31T16:13:47.358Z,62.14
2022-12-31T16:17:27.406Z,62.22
2022-12-31T16:20:32.537Z,61.32
2022-12-31T16:23:42.053Z,61.61
2022-12-31T16:26:48.325Z,61.65
2022-12-31T16:29:58.751Z,62.07
2022-12-31T16:33:04.143Z,62.47
2022-12-31T16:36:18.834Z,62.75
2022-12-31T16:39:29.539Z,62.87
2022-12-31T16:42:33.139Z,63.43
2022-12-31T16:45:36.968Z,64.70
2022-12-31T16:48:39.490Z,64.87
2022-12-31T16:51:42.513Z,65.12
2022-12-31T16:54:50.484Z,66.01
2022-12-31T16:58:03.095Z,66.00
2022-12-31T17:01:36.649Z,66.85
2022-12-31T17:04:45.916Z,66.54
2022-12-31T17:07:50.477Z,67.61
2022-12-31T17:10:56.751Z,69.86
2022-12-31T17:14:10.550Z,71.92
2022-12-31T17:17:23.756Z,73.62
2022-12-31T17:20:29.117Z,72.55
2022-12-31T17:23:33.877Z,72.57
2022-12-31T17:26:38.136Z,71.36
2022-12-31T17:29:40.415Z,72.48
2022-12-31T17:32:43.647Z,70.71
2022-12-31T17:35:46.108Z,71.09
2022-12-31T17:38:49.617Z,70.98
2022-12-31T17:41:55.805Z,71.04
2022-12-31T17:45:15.780Z,70.64
2022-12-31T17:48:20.142Z,70.87
2022-12-31T17:51:24.269Z,71.04
2022-12-31T17:54:26.764Z,70.98
2022-12-31T17:57:37.681Z,71.00
2022-12-31T18:00:39.879Z,70.95
2022-12-31T18:03:44.892Z,71.24
2022-12-31T18:06:58.620Z,71.57
2022-12-31T18:10:32.462Z,71.45
2022-12-31T18:13:41.195Z,71.18
2022-12-31T18:17:14.614Z,71.55
2022-12-31T18:20:17.896Z,71.18
2022-12-31T18:23:36.744Z,72.61
2022-12-31T18:26:51.242Z,71.80
2022-12-31T18:30:02.238Z,71.75
2022-12-31T18:33:28.239Z,70.90
2022-12-31T18:37:17.928Z,73.61
2022-12-31T18:44:32.265Z,73.55
2022-12-31T18:47:37.617Z,74.38
2022-12-31T18:50:41.105Z,73.58
2022-12-31T18:53:43.709Z,73.80
2022-12-31T18:56:49.203Z,73.66
2022-12-31T18:59:55.039Z,72.98
2022-12-31T19:02:59.595Z,73.61
2022-12-31T19:06:02.012Z,73.51
2022-12-31T19:09:09.344Z,73.52
2022-12-31T19:12:25.605Z,72.66
2022-12-31T19:15:41.600Z,74.33
2022-12-31T19:18:43.865Z,73.31
2022-12-31T19:21:46.467Z,73.13
2022-12-31T19:24:48.563Z,73.12
2022-12-31T19:27:51.559Z,72.51
2022-12-31T19:30:54.062Z,72.78
2022-12-31T19:33:56.397Z,72.97
2022-12-31T19:36:58.505Z,72.63
2022-12-31T19:40:11.673Z,72.85
2022-12-31T19:43:15.953Z,72.63
2022-12-31T19:46:18.991Z,72.66
2022-12-31T19:49:21.170Z,72.79
2022-12-31T19:52:23.255Z,72.87
2022-12-31T19:55:26.476Z,73.35
2022-12-31T19:58:32.558Z,72.80
2022-12-31T20:01:34.930Z,72.06
2022-12-31T20:04:37.150Z,71.72
2022-12-31T20:07:39.807Z,71.65
2022-12-31T20:10:41.834Z,71.74
2022-12-31T20:13:44.647Z,70.86
2022-12-31T20:16:48.958Z,69.92
2022-12-31T20:19:51.629Z,70.46
2022-12-31T20:22:53.939Z,69.55
2022-12-31T20:25:58.120Z,69.39
2022-12-31T20:29:03.382Z,69.80
2022-12-31T20:32:06.011Z,70.16
2022-12-31T20:35:08.074Z,69.72
2022-12-31T20:38:10.276Z,68.70
2022-12-31T20:41:18.757Z,69.37
2022-12-31T20:44:21.249Z,69.88
2022-12-31T20:47:23.276Z,68.64
2022-12-31T20:50:25.305Z,69.31
2022-12-31T20:53:27.926Z,69.77
2022-12-31T20:56:33.321Z,71.40
2022-12-31T20:59:35.347Z,70.30
2022-12-31T21:02:42.654Z,71.53
2022-12-31T21:05:54.472Z,70.46
2022-12-31T21:08:59.416Z,71.58
2022-12-31T21:12:20.300Z,71.21
2022-12-31T21:15:22.362Z,72.84
2022-12-31T21:18:24.662Z,72.85
2022-12-31T21:21:26.848Z,73.13
2022-12-31T21:24:28.904Z,73.21
2022-12-31T21:27:31.133Z,73.22
2022-12-31T21:30:33.656Z,73.65
2022-12-31T21:33:35.825Z,72.85
2022-12-31T21:36:37.908Z,73.21
2022-12-31T21:39:40.128Z,73.67
2022-12-31T21:42:42.344Z,73.69
2022-12-31T21:45:52.316Z,73.75
2022-12-31T21:48:58.840Z,73.49
2022-12-31T21:52:19.675Z,79.42
2022-12-31T21:55:40.472Z,79.89
2022-12-31T21:58:44.704Z,79.12
2022-12-31T22:02:05.160Z,78.14
2022-12-31T22:05:17.333Z,77.76
2022-12-31T22:08:24.588Z,76.97
2022-12-31T22:11:28.469Z,74.66
2022-12-31T22:14:30.994Z,75.29
2022-12-31T22:17:33.014Z,74.90
2022-12-31T22:20:35.916Z,74.13
2022-12-31T22:23:38.700Z,74.82
2022-12-31T22:26:46.515Z,73.47
2022-12-31T22:29:48.981Z,73.82
2022-12-31T22:32:51.299Z,72.03
2022-12-31T22:36:01.759Z,71.58
2022-12-31T22:39:04.924Z,72.17
2022-12-31T22:42:08.518Z,72.45
2022-12-31T22:45:11.965Z,72.19
2022-12-31T22:48:14.070Z,71.94
2022-12-31T22:51:19.986Z,71.82
2022-12-31T22:54:22.135Z,71.25
2022-12-31T22:57:24.138Z,71.51
2022-12-31T23:00:39.801Z,71.64
2022-12-31T23:03:42.949Z,70.63
2022-12-31T23:06:46.838Z,70.47
2022-12-31T23:10:08.192Z,69.70
2022-12-31T23:13:30.882Z,70.28
2022-12-31T23:20:52.223Z,68.89
2022-12-31T23:23:57.694Z,68.65
2022-12-31T23:27:28.944Z,69.45
2022-12-31T23:30:31.064Z,69.86
2022-12-31T23:33:35.545Z,69.65
2022-12-31T23:36:42.977Z,69.13
2022-12-31T23:39:48.220Z,68.72
2022-12-31T23:42:50.525Z,69.46
2022-12-31T23:45:52.768Z,69.99
2022-12-31T23:48:54.767Z,69.92
2022-12-31T23:51:59.669Z,69.71
2022-12-31T23:55:03.836Z,70.31
2022-12-31T23:58:07.523Z,70.71
